Pagina principală
METAR-TAF:

METAR-TAF

Aeroporturi :

Broken Bow, Nebraska, Statele Unite ale Americii

Latitudine: 41-26N, longitudine: 099-39W, elevație: 776 m

Observații meteo curente

Raportul a fost făcut în urmă cu 31 de minute, la 15:53 UTC
Vânt 8 kt de la Nord cu rafale de până la 17 kt
Temperatură 3°C
Umiditate 52%
Presiune 1030 hPa
Vizibilitate: 16.1 km
Total acoperit la o înălțime de 10000 picior

METAR: KBBW 201553Z AUTO 35008G17KT 10SM OVC100 03/M06 A3043 RMK AO2 SLP321 T00331056

Ora: 11:24 (16:24 UTC)


TAF: lipsă

Observații și prognoze meteo pentru peste 4.000 de aeroporturi (rapoarte METAR și TAF).

Stațiile disponibile sunt reprezentate pe hartă prin puncte galbene și roșii.

Țineți indicatorul mouse-ului pe punctul dorit pentru a vedea denumirea stației.

Apoi, faceți clic pentru a vedea observațiile și prognozele meteorologice.

Pentru a schimba harta: Pentru mărire, faceți clic pe butoanele verzi cu cruce neagră; pentru micșorare, pe butonul verde cu o liniuță; pentru hărți învecinate, pe săgețile verzi.


METAR-TAF: